Marmaduke, Arkansas
Current Conditions -  °F | °C
As of 7:35 PM on Tuesday 25 Nov 2014 (Local Time) from K4M9 Reporting Station
Clear Clear  
Wind Chill: 34°   Ceiling: Unl
Heat Index: 37°   Visibility: 10mi
Dew Point: 28°   Wind: 5mph
Humidity: 70%   Direction: 160°SSE
Pressure: 30.19"   Gusts: NA
Location:  36.19°N, 90.38°W
Report Text: K4M9 260135Z AUTO 16004KT 10SM CLR 03/M02 A3019 RMK AO2
Loading
Personal Weather Stations






























Interactive Weather Map New forecast layout! Learn more

10-Day Weather Forecast

Advertisements
Track Severe Weather on mobile